Time;durP1;ratioP1;P1;durP2;ratioP2;P2;SDS_P1;SDS_P2;PMS_P1;PMS_P2;Temp;Humidity;BMP_temperature;BMP_pressure;BME280_temperature;BME280_humidity;BME280_pressure;Samples;Min_cycle;Max_cycle;Signal;HPM_P1;HPM_P2
2021/04/01 00:00:10;;;;;;;29.10;27.07;;;12.50;64.80;;;;;;5116366;28;20468;-77
2021/04/01 00:02:36;;;;;;;29.80;27.70;;;12.50;65.10;;;;;;5116128;28;20474;-77
2021/04/01 00:05:05;;;;;;;29.10;26.80;;;12.40;65.00;;;;;;5116312;28;20816;-77
2021/04/01 00:07:31;;;;;;;29.77;27.57;;;12.40;65.10;;;;;;5115408;28;20936;-78
2021/04/01 00:09:58;;;;;;;30.33;28.00;;;12.40;65.10;;;;;;5116276;28;20479;-78
2021/04/01 00:12:24;;;;;;;29.90;27.60;;;12.40;64.90;;;;;;5116309;28;20452;-78
2021/04/01 00:14:50;;;;;;;30.90;28.73;;;12.50;64.80;;;;;;5116678;28;20482;-78
2021/04/01 00:17:18;;;;;;;29.17;27.20;;;12.50;66.00;;;;;;5115804;28;20472;-78
2021/04/01 00:19:45;;;;;;;30.63;28.53;;;12.50;64.90;;;;;;5116301;28;20476;-78
2021/04/01 00:22:11;;;;;;;29.80;27.90;;;12.40;65.00;;;;;;5116357;28;20456;-78
2021/04/01 00:24:37;;;;;;;29.93;27.60;;;12.40;64.80;;;;;;5125209;28;20459;-78
2021/04/01 00:27:05;;;;;;;28.50;26.60;;;12.30;65.00;;;;;;5118139;28;20528;-78
2021/04/01 00:29:31;;;;;;;29.20;27.10;;;12.30;68.10;;;;;;5116041;28;20977;-78
2021/04/01 00:31:58;;;;;;;29.90;27.70;;;12.20;66.20;;;;;;5115677;28;20857;-78
2021/04/01 00:34:25;;;;;;;29.97;27.97;;;12.20;66.10;;;;;;5115707;27;20893;-78
2021/04/01 00:36:51;;;;;;;30.33;27.83;;;12.20;66.00;;;;;;5114647;28;20476;-78
2021/04/01 00:39:18;;;;;;;29.53;27.53;;;12.20;65.90;;;;;;5115426;28;20468;-78
2021/04/01 00:41:45;;;;;;;29.77;27.60;;;12.20;66.80;;;;;;5115304;28;20471;-77
2021/04/01 00:44:13;;;;;;;30.30;28.03;;;12.20;67.80;;;;;;5115557;28;20448;-78
2021/04/01 00:46:39;;;;;;;30.37;28.23;;;12.20;65.90;;;;;;5114662;28;20440;-78
2021/04/01 00:49:06;;;;;;;31.07;28.77;;;12.20;65.20;;;;;;5114021;28;21018;-78
2021/04/01 00:51:33;;;;;;;30.43;28.53;;;12.20;65.40;;;;;;5115219;28;20509;-78
2021/04/01 00:54:00;;;;;;;30.80;28.63;;;12.20;65.20;;;;;;5115081;28;20949;-77
2021/04/01 00:56:26;;;;;;;31.47;29.17;;;12.20;65.20;;;;;;5114582;28;20913;-77
2021/04/01 00:58:54;;;;;;;30.37;28.10;;;12.20;65.50;;;;;;5114821;28;20464;-77
2021/04/01 01:01:33;;;;;;;30.20;28.20;;;12.10;65.60;;;;;;5114738;28;20513;-78
2021/04/01 01:03:59;;;;;;;29.70;27.60;;;12.10;65.90;;;;;;5115057;28;20975;-78
2021/04/01 01:06:26;;;;;;;30.03;28.03;;;12.00;66.20;;;;;;5114451;28;20440;-77
2021/04/01 01:08:53;;;;;;;30.53;28.10;;;12.00;66.90;;;;;;5114478;28;20481;-77
2021/04/01 01:11:19;;;;;;;31.43;28.47;;;12.00;66.80;;;;;;5114889;28;20440;-77
2021/04/01 01:13:46;;;;;;;31.20;28.83;;;11.90;66.90;;;;;;5114665;28;20463;-77
2021/04/01 01:16:12;;;;;;;31.10;28.80;;;11.90;66.90;;;;;;5114028;28;20960;-77
2021/04/01 01:18:39;;;;;;;29.73;27.83;;;11.90;66.60;;;;;;5114898;28;20459;-77
2021/04/01 01:21:07;;;;;;;32.57;29.17;;;12.00;66.20;;;;;;5114571;27;20468;-78
2021/04/01 01:23:34;;;;;;;31.37;28.77;;;12.00;66.00;;;;;;5114560;28;20543;-77
2021/04/01 01:26:02;;;;;;;29.90;27.90;;;11.90;66.10;;;;;;5115383;27;20463;-77
2021/04/01 01:28:28;;;;;;;29.90;27.80;;;11.90;66.30;;;;;;5114366;28;20454;-77
2021/04/01 01:30:54;;;;;;;31.57;28.97;;;11.70;66.60;;;;;;5114269;28;20476;-77
2021/04/01 01:33:23;;;;;;;29.23;27.27;;;11.70;66.90;;;;;;5114476;28;20462;-77
2021/04/01 01:35:52;;;;;;;30.27;28.30;;;11.60;67.00;;;;;;5114068;28;20448;-77
2021/04/01 01:38:19;;;;;;;30.33;28.17;;;11.60;67.70;;;;;;5114247;28;20516;-77
2021/04/01 01:40:45;;;;;;;30.50;28.30;;;11.50;67.70;;;;;;5114203;28;20479;-77
2021/04/01 01:43:14;;;;;;;31.93;29.47;;;11.50;67.50;;;;;;5114727;28;20543;-77
2021/04/01 01:45:43;;;;;;;31.17;28.87;;;11.50;67.60;;;;;;5114152;28;20453;-77
2021/04/01 01:48:10;;;;;;;31.17;28.50;;;11.50;67.70;;;;;;5114500;28;21666;-77
2021/04/01 01:50:38;;;;;;;30.80;28.77;;;11.50;67.80;;;;;;5113904;28;20479;-77
2021/04/01 01:53:06;;;;;;;30.57;28.57;;;11.50;67.80;;;;;;5114075;28;20448;-77
2021/04/01 01:55:33;;;;;;;30.33;28.37;;;11.50;67.90;;;;;;5113729;28;20865;-78
2021/04/01 01:58:00;;;;;;;30.57;28.63;;;11.50;67.80;;;;;;5114486;28;20575;-77
2021/04/01 02:00:30;;;;;;;30.50;27.80;;;11.40;67.80;;;;;;5113925;28;20468;-77
2021/04/01 02:02:58;;;;;;;30.23;28.13;;;11.40;68.70;;;;;;5113328;28;20893;-77
2021/04/01 02:05:26;;;;;;;29.03;27.03;;;11.40;71.90;;;;;;5113453;28;20460;-77
2021/04/01 02:07:53;;;;;;;31.57;29.03;;;11.50;68.40;;;;;;5113293;28;20448;-77
2021/04/01 02:10:21;;;;;;;30.07;27.83;;;11.50;67.60;;;;;;5113464;28;20480;-77
2021/04/01 02:12:47;;;;;;;29.80;27.60;;;11.50;67.30;;;;;;5113467;28;20455;-77
2021/04/01 02:15:16;;;;;;;30.37;28.23;;;11.50;67.30;;;;;;5113807;28;20456;-77
2021/04/01 02:17:43;;;;;;;32.10;29.47;;;11.60;67.40;;;;;;5116621;28;20478;-78
2021/04/01 02:20:11;;;;;;;31.93;29.33;;;11.60;67.20;;;;;;5116749;28;20465;-79
2021/04/01 02:22:37;;;;;;;32.00;29.60;;;11.70;66.90;;;;;;5113408;28;20452;-78
2021/04/01 02:25:05;;;;;;;30.57;28.43;;;11.70;66.30;;;;;;5113190;28;20458;-78
2021/04/01 02:27:32;;;;;;;31.50;29.20;;;11.70;66.10;;;;;;5112806;28;20456;-78
2021/04/01 02:29:58;;;;;;;31.20;28.83;;;11.80;65.70;;;;;;5113345;28;21039;-78
2021/04/01 02:32:25;;;;;;;31.00;28.50;;;11.90;65.70;;;;;;5113070;28;20458;-78
2021/04/01 02:34:52;;;;;;;31.17;28.60;;;11.90;65.50;;;;;;5113130;28;20455;-78
2021/04/01 02:37:18;;;;;;;31.73;29.23;;;11.90;65.30;;;;;;5112562;28;20476;-77
2021/04/01 02:39:45;;;;;;;30.93;28.57;;;11.90;65.40;;;;;;5113094;28;20528;-76
2021/04/01 02:42:12;;;;;;;30.90;28.60;;;11.90;65.40;;;;;;5113154;28;20525;-77
2021/04/01 02:44:38;;;;;;;31.00;28.90;;;11.90;65.40;;;;;;5113177;28;20545;-77
2021/04/01 02:47:05;;;;;;;31.00;28.70;;;12.00;66.00;;;;;;5112354;28;20452;-78
2021/04/01 02:49:32;;;;;;;30.60;28.60;;;12.10;65.20;;;;;;5112853;28;20544;-80
2021/04/01 02:51:59;;;;;;;32.63;30.07;;;12.00;65.50;;;;;;5112920;28;20504;-77
2021/04/01 02:54:25;;;;;;;29.33;27.33;;;11.90;65.70;;;;;;5112986;28;20478;-77
2021/04/01 02:56:52;;;;;;;32.10;29.00;;;11.90;65.50;;;;;;5112139;28;20485;-77
2021/04/01 02:59:18;;;;;;;31.00;28.80;;;11.90;66.00;;;;;;5112747;28;20555;-78
2021/04/01 03:01:45;;;;;;;31.13;28.87;;;11.90;65.60;;;;;;5112246;28;20456;-77
2021/04/01 03:04:11;;;;;;;30.93;28.60;;;11.90;65.40;;;;;;5113061;28;20505;-77
2021/04/01 03:06:38;;;;;;;31.73;29.27;;;11.80;65.50;;;;;;5112197;28;20448;-78
2021/04/01 03:09:05;;;;;;;31.37;29.13;;;11.80;65.80;;;;;;5112422;28;20973;-78
2021/04/01 03:11:32;;;;;;;30.53;27.70;;;11.80;65.80;;;;;;5112732;28;20853;-78
2021/04/01 03:13:58;;;;;;;31.70;29.20;;;11.70;66.20;;;;;;5112137;28;20957;-77
2021/04/01 03:16:25;;;;;;;33.70;30.57;;;11.60;66.40;;;;;;5112234;28;20536;-77
2021/04/01 03:18:52;;;;;;;31.57;28.80;;;11.70;66.00;;;;;;5112545;28;20448;-78
2021/04/01 03:21:18;;;;;;;30.83;28.63;;;11.70;65.90;;;;;;5112671;28;20455;-77
2021/04/01 03:23:44;;;;;;;31.40;29.27;;;11.70;66.00;;;;;;5112405;28;20479;-78
2021/04/01 03:26:12;;;;;;;31.93;29.50;;;11.60;66.10;;;;;;5112126;28;20814;-77
2021/04/01 03:28:38;;;;;;;30.93;28.77;;;11.60;66.20;;;;;;5112666;28;20473;-78
2021/04/01 03:31:04;;;;;;;31.27;29.07;;;11.60;66.40;;;;;;5112559;28;20563;-78
2021/04/01 03:33:32;;;;;;;32.87;30.17;;;11.60;66.60;;;;;;5112373;28;20444;-78
2021/04/01 03:35:59;;;;;;;30.90;28.23;;;11.50;66.70;;;;;;5112098;28;20539;-78
2021/04/01 03:38:27;;;;;;;31.13;28.80;;;11.50;66.80;;;;;;5112367;28;20487;-77
2021/04/01 03:40:54;;;;;;;32.47;30.10;;;11.50;67.00;;;;;;5112312;28;20806;-78
2021/04/01 03:43:23;;;;;;;32.90;29.80;;;11.50;66.90;;;;;;5112376;28;20463;-78
2021/04/01 03:45:50;;;;;;;30.63;28.43;;;11.60;66.60;;;;;;5111718;28;20440;-78
2021/04/01 03:48:16;;;;;;;32.80;30.10;;;11.70;66.00;;;;;;5112247;28;20533;-77
2021/04/01 03:50:43;;;;;;;32.60;29.87;;;11.60;66.20;;;;;;5112214;28;20503;-77
2021/04/01 03:53:11;;;;;;;32.87;30.27;;;11.60;66.30;;;;;;5112299;28;20971;-77
2021/04/01 03:55:40;;;;;;;33.83;30.67;;;11.60;66.70;;;;;;5111932;28;20460;-77
2021/04/01 03:58:27;;;;;;;30.65;28.20;;;11.60;66.30;;;;;;5112127;28;20476;-78
2021/04/01 04:01:04;;;;;;;30.83;28.50;;;11.70;65.90;;;;;;5112244;28;20287;-77
2021/04/01 04:03:41;;;;;;;30.97;28.47;;;11.70;65.90;;;;;;5111878;28;20470;-77
2021/04/01 04:06:17;;;;;;;30.80;28.20;;;11.70;65.90;;;;;;5111717;28;20898;-77
2021/04/01 04:08:59;;;;;;;33.40;30.70;;;11.70;66.30;;;;;;5112070;28;20454;-77
2021/04/01 04:11:30;;;;;;;32.30;29.63;;;11.70;66.10;;;;;;5112259;28;20456;-78
2021/04/01 04:14:02;;;;;;;33.00;30.50;;;11.60;66.10;;;;;;5118221;28;20199;-78
2021/04/01 04:16:30;;;;;;;31.57;29.17;;;11.60;66.50;;;;;;5117729;28;20456;-77
2021/04/01 04:18:56;;;;;;;31.37;29.07;;;11.50;66.60;;;;;;5112430;28;20535;-77
2021/04/01 04:21:23;;;;;;;31.47;28.80;;;11.50;67.10;;;;;;5112294;28;20853;-77
2021/04/01 04:23:50;;;;;;;33.43;30.93;;;11.40;68.00;;;;;;5112479;28;20452;-77
2021/04/01 04:26:17;;;;;;;32.07;29.07;;;11.40;70.00;;;;;;5127361;28;20448;-78
2021/04/01 04:28:44;;;;;;;31.40;29.00;;;11.40;68.00;;;;;;5127740;28;20783;-77
2021/04/01 04:31:11;;;;;;;31.10;28.80;;;11.40;67.70;;;;;;5115905;28;20452;-77
2021/04/01 04:33:39;;;;;;;32.70;30.07;;;11.30;67.80;;;;;;5115588;28;20452;-77
2021/04/01 04:36:06;;;;;;;31.37;29.13;;;11.20;69.90;;;;;;5114761;27;20964;-77
2021/04/01 04:38:33;;;;;;;33.33;30.47;;;11.20;70.60;;;;;;5115312;28;20984;-78
2021/04/01 04:40:59;;;;;;;31.88;29.48;;;11.30;68.60;;;;;;5115379;28;20840;-77
2021/04/01 04:43:28;;;;;;;32.58;30.05;;;11.30;67.90;;;;;;5115381;28;20198;-78
2021/04/01 04:45:55;;;;;;;31.38;28.90;;;11.20;68.00;;;;;;5114864;28;20344;-78
2021/04/01 04:48:22;;;;;;;32.20;28.93;;;11.20;68.00;;;;;;5115157;28;20273;-77
2021/04/01 04:50:49;;;;;;;32.63;30.07;;;11.20;67.90;;;;;;5115015;28;20554;-77
2021/04/01 04:53:16;;;;;;;31.88;29.52;;;11.20;67.90;;;;;;5115202;28;20448;-77
2021/04/01 04:55:49;;;;;;;32.83;30.40;;;11.30;67.80;;;;;;5114566;28;20206;-77
2021/04/01 04:58:20;;;;;;;31.58;29.17;;;11.20;67.90;;;;;;5115138;28;20223;-77
2021/04/01 05:01:01;;;;;;;30.88;28.50;;;11.10;68.30;;;;;;5114744;28;20210;-77
2021/04/01 05:06:19;;;;;;;31.95;29.45;;;10.90;69.60;;;;;;5114679;28;20197;-78
2021/04/01 05:08:46;;;;;;;30.83;28.52;;;10.90;69.90;;;;;;5114535;28;20239;-78
2021/04/01 05:11:12;;;;;;;32.08;29.60;;;10.90;69.70;;;;;;5114857;28;20197;-78
2021/04/01 05:13:38;;;;;;;30.63;28.33;;;10.90;69.60;;;;;;5115270;28;20292;-77
2021/04/01 05:16:05;;;;;;;30.88;28.67;;;11.00;69.50;;;;;;5114539;28;20678;-77
2021/04/01 05:18:31;;;;;;;30.25;27.85;;;10.90;69.90;;;;;;5114633;28;20812;-77
2021/04/01 05:20:59;;;;;;;33.70;30.40;;;11.00;70.40;;;;;;5114553;28;20217;-77
2021/04/01 05:23:33;;;;;;;31.03;28.37;;;10.90;70.00;;;;;;5114869;28;20674;-77
2021/04/01 05:26:34;;;;;;;31.92;29.52;;;10.90;69.90;;;;;;5115180;28;20993;-77
2021/04/01 05:29:02;;;;;;;32.13;29.45;;;11.00;69.80;;;;;;5115433;28;20223;-77
2021/04/01 05:31:31;;;;;;;35.17;30.90;;;11.10;69.70;;;;;;5115364;28;20267;-77
2021/04/01 05:33:58;;;;;;;32.20;29.60;;;11.20;68.70;;;;;;5116124;28;20535;-77
2021/04/01 05:36:26;;;;;;;32.00;29.27;;;11.20;68.30;;;;;;5114459;28;20458;-77
2021/04/01 05:38:54;;;;;;;32.17;29.80;;;11.30;68.20;;;;;;5115061;28;20222;-77
2021/04/01 05:41:23;;;;;;;32.45;29.92;;;11.30;68.00;;;;;;5114604;28;20448;-77
2021/04/01 05:43:52;;;;;;;30.00;27.80;;;11.40;68.00;;;;;;5114558;28;20194;-77
2021/04/01 05:46:24;;;;;;;32.90;30.20;;;11.50;67.50;;;;;;5113992;28;20440;-77
2021/04/01 05:49:09;;;;;;;42.63;35.97;;;11.40;69.90;;;;;;5114387;28;20456;-78
2021/04/01 05:55:07;;;;;;;33.03;29.73;;;11.50;68.40;;;;;;5112346;28;20520;-77
2021/04/01 05:57:46;;;;;;;34.17;31.30;;;11.70;67.80;;;;;;5113439;28;20472;-77
2021/04/01 06:03:19;;;;;;;32.50;29.90;;;12.00;67.30;;;;;;5113955;28;20537;-77
2021/04/01 06:05:50;;;;;;;33.43;30.17;;;12.10;66.90;;;;;;5113448;28;20448;-77
2021/04/01 06:08:19;;;;;;;31.93;29.33;;;12.20;66.50;;;;;;5117984;28;20448;-78
2021/04/01 06:10:48;;;;;;;33.23;30.50;;;12.30;66.10;;;;;;5121011;28;20469;-78
2021/04/01 06:13:15;;;;;;;33.67;31.00;;;12.30;66.10;;;;;;5114132;28;21006;-78
2021/04/01 06:15:46;;;;;;;35.27;31.90;;;12.30;65.90;;;;;;5113357;28;20459;-77
2021/04/01 06:18:14;;;;;;;32.53;29.77;;;12.40;66.40;;;;;;5113708;28;20566;-78
2021/04/01 06:20:43;;;;;;;31.57;29.30;;;12.50;65.70;;;;;;5113882;28;20498;-78
2021/04/01 06:23:14;;;;;;;31.37;29.17;;;12.70;65.10;;;;;;5113523;28;20949;-77
2021/04/01 06:25:41;;;;;;;31.33;29.03;;;12.80;64.50;;;;;;5113322;28;20456;-78
2021/04/01 06:28:13;;;;;;;32.67;29.90;;;12.90;64.10;;;;;;5113748;28;20448;-77
2021/04/01 06:30:46;;;;;;;36.33;31.93;;;12.90;64.00;;;;;;5113663;28;20609;-78
2021/04/01 06:33:13;;;;;;;32.40;29.90;;;12.90;64.10;;;;;;5113406;28;20455;-77
2021/04/01 06:35:43;;;;;;;31.13;28.93;;;13.00;64.00;;;;;;5113005;28;20476;-77
2021/04/01 06:38:21;;;;;;;32.43;29.83;;;13.30;63.50;;;;;;5113731;28;20829;-79
2021/04/01 06:40:50;;;;;;;32.90;29.93;;;13.60;62.30;;;;;;5113598;28;20516;-78
2021/04/01 06:43:57;;;;;;;32.67;30.20;;;13.70;61.90;;;;;;5113859;28;20539;-78
2021/04/01 06:46:25;;;;;;;34.17;30.90;;;13.90;61.70;;;;;;5113064;28;21019;-78
2021/04/01 06:49:24;;;;;;;34.23;31.33;;;14.00;61.10;;;;;;5113279;28;20806;-78
2021/04/01 06:51:58;;;;;;;34.77;31.33;;;14.20;60.90;;;;;;5114435;28;20501;-79
2021/04/01 06:54:31;;;;;;;34.33;31.40;;;14.30;60.60;;;;;;5114566;28;20539;-78
2021/04/01 06:57:18;;;;;;;34.00;31.23;;;14.50;60.20;;;;;;5113876;28;20798;-78
2021/04/01 07:00:00;;;;;;;48.73;34.60;;;14.70;59.30;;;;;;5115363;28;20507;-78
2021/04/01 07:02:33;;;;;;;35.50;31.47;;;14.90;58.90;;;;;;5113738;28;20941;-77
2021/04/01 07:05:16;;;;;;;34.50;30.67;;;15.10;58.50;;;;;;5114163;28;20535;-78
2021/04/01 07:07:45;;;;;;;32.90;30.43;;;15.20;58.40;;;;;;5112697;28;20478;-78
2021/04/01 07:10:19;;;;;;;34.43;31.43;;;15.30;58.00;;;;;;5113205;28;20480;-78
2021/04/01 07:12:49;;;;;;;35.73;33.07;;;15.40;58.00;;;;;;5112820;28;20444;-78
2021/04/01 07:15:21;;;;;;;33.33;30.53;;;15.50;57.60;;;;;;5113088;28;20456;-78
2021/04/01 07:17:52;;;;;;;33.13;30.73;;;15.70;56.70;;;;;;5112478;28;20475;-78
2021/04/01 07:20:36;;;;;;;32.87;30.40;;;15.80;56.20;;;;;;5113163;28;20845;-78
2021/04/01 07:34:52;;;;;;;32.33;29.83;;;16.30;56.00;;;;;;5112931;28;20436;-79
2021/04/01 07:48:44;;;;;;;35.60;32.67;;;17.40;53.60;;;;;;5125001;28;20460;-78
2021/04/01 07:51:26;;;;;;;34.70;32.03;;;17.50;53.40;;;;;;5129163;28;21036;-79
2021/04/01 07:53:53;;;;;;;34.83;32.17;;;17.50;53.60;;;;;;5112699;28;20480;-78
2021/04/01 07:56:26;;;;;;;35.77;32.97;;;17.50;53.60;;;;;;5111993;28;20452;-79
2021/04/01 08:01:47;;;;;;;36.00;33.30;;;18.00;52.40;;;;;;5110131;28;20855;-78
2021/04/01 08:04:17;;;;;;;36.33;33.33;;;18.20;52.00;;;;;;5127261;28;20461;-79
2021/04/01 08:06:43;;;;;;;37.73;34.80;;;18.20;51.90;;;;;;5115752;28;20600;-79
2021/04/01 08:09:13;;;;;;;41.77;37.33;;;18.20;52.00;;;;;;5115812;28;20472;-78
2021/04/01 08:11:44;;;;;;;36.70;33.80;;;18.20;52.10;;;;;;5116018;28;20538;-78
2021/04/01 08:14:15;;;;;;;37.33;34.00;;;18.30;51.90;;;;;;5115968;28;20535;-78
2021/04/01 08:16:48;;;;;;;37.33;33.43;;;18.60;51.50;;;;;;5115184;28;20542;-78
2021/04/01 08:19:19;;;;;;;36.83;34.00;;;18.70;51.10;;;;;;5115801;28;20503;-78
2021/04/01 08:21:48;;;;;;;35.40;32.70;;;18.80;50.70;;;;;;5116032;28;20440;-78
2021/04/01 08:24:17;;;;;;;36.00;32.60;;;18.90;50.70;;;;;;5115632;28;20539;-78
2021/04/01 08:26:59;;;;;;;35.33;32.43;;;19.00;50.60;;;;;;5115396;28;20452;-78
2021/04/01 08:30:41;;;;;;;36.47;33.50;;;19.10;50.30;;;;;;5115639;28;20548;-78
2021/04/01 08:33:00;;;;;;;37.57;34.27;;;19.10;50.30;;;;;;5115663;28;20440;-78
2021/04/01 08:35:29;;;;;;;38.87;35.10;;;19.20;50.40;;;;;;5115212;28;20483;-78
2021/04/01 08:38:08;;;;;;;36.07;33.00;;;19.10;50.70;;;;;;5115409;28;20884;-78
2021/04/01 08:40:35;;;;;;;37.30;33.93;;;19.10;50.90;;;;;;5115285;28;20468;-78
2021/04/01 08:43:35;;;;;;;37.10;33.70;;;19.30;50.70;;;;;;5115445;28;20453;-78
2021/04/01 08:46:28;;;;;;;36.90;33.87;;;19.60;50.20;;;;;;5091930;28;20519;-78
2021/04/01 08:49:10;;;;;;;35.60;32.70;;;20.10;49.30;;;;;;5115379;28;20440;-78
2021/04/01 08:52:11;;;;;;;38.53;35.13;;;20.30;48.80;;;;;;5115256;28;20448;-78
2021/04/01 08:54:42;;;;;;;36.60;33.00;;;20.20;49.20;;;;;;5115345;28;20443;-79
2021/04/01 08:57:11;;;;;;;36.27;33.07;;;20.10;49.60;;;;;;5114422;28;20448;-78
2021/04/01 08:59:47;;;;;;;36.43;33.23;;;20.00;49.90;;;;;;5115428;28;21019;-78
2021/04/01 09:02:18;;;;;;;37.13;33.47;;;19.90;50.40;;;;;;5114715;28;20933;-79
2021/04/01 09:04:49;;;;;;;37.87;34.47;;;20.00;50.50;;;;;;5114921;28;20455;-78
2021/04/01 09:07:25;;;;;;;57.73;38.00;;;20.10;50.20;;;;;;5114356;28;20455;-78
2021/04/01 09:09:53;;;;;;;35.57;32.33;;;20.10;50.30;;;;;;5114308;28;20478;-77
2021/04/01 09:12:23;;;;;;;38.40;33.17;;;20.40;49.60;;;;;;5115631;28;20452;-78
2021/04/01 09:15:02;;;;;;;35.67;32.63;;;20.30;49.90;;;;;;5116528;28;20464;-79
2021/04/01 09:17:30;;;;;;;36.20;32.90;;;20.30;50.10;;;;;;5115312;28;20472;-78
2021/04/01 09:19:57;;;;;;;33.53;31.00;;;20.40;49.60;;;;;;5115447;28;20977;-79
2021/04/01 09:22:26;;;;;;;34.73;32.03;;;20.40;49.70;;;;;;5115418;28;20479;-78
2021/04/01 09:24:58;;;;;;;32.37;29.73;;;20.50;49.60;;;;;;5114568;28;20535;-78
2021/04/01 09:27:25;;;;;;;36.03;32.90;;;20.40;49.60;;;;;;5114042;28;20501;-79
2021/04/01 09:30:01;;;;;;;33.50;30.47;;;20.40;49.70;;;;;;5114568;28;20525;-79
2021/04/01 09:32:29;;;;;;;31.83;28.97;;;20.30;49.60;;;;;;5114569;28;20456;-79
2021/04/01 09:34:59;;;;;;;32.93;29.97;;;20.40;49.50;;;;;;5114261;28;20456;-79
2021/04/01 09:37:27;;;;;;;31.20;28.73;;;20.50;49.40;;;;;;5113891;28;20471;-79
2021/04/01 09:39:55;;;;;;;32.57;29.80;;;20.50;49.30;;;;;;5114572;28;20503;-79
2021/04/01 09:42:22;;;;;;;32.90;30.30;;;20.60;48.90;;;;;;5114356;28;20499;-78
2021/04/01 09:44:55;;;;;;;33.20;30.50;;;20.70;48.90;;;;;;5114267;28;20448;-79
2021/04/01 09:47:29;;;;;;;31.57;29.10;;;20.80;48.80;;;;;;5113833;28;20949;-79
2021/04/01 09:50:03;;;;;;;38.27;34.97;;;20.70;48.90;;;;;;5114347;27;20478;-79
2021/04/01 09:52:31;;;;;;;33.83;31.10;;;20.60;49.20;;;;;;5114146;28;20451;-78
2021/04/01 09:54:59;;;;;;;32.03;29.50;;;20.80;48.70;;;;;;5114181;28;20448;-78
2021/04/01 09:57:40;;;;;;;32.87;30.17;;;20.70;49.00;;;;;;5116324;28;20475;-79
2021/04/01 10:00:18;;;;;;;33.80;30.93;;;20.80;48.90;;;;;;5118246;28;20976;-78
2021/04/01 10:03:01;;;;;;;37.03;34.20;;;20.90;48.50;;;;;;5113485;28;20817;-78
2021/04/01 10:05:28;;;;;;;33.23;30.83;;;20.90;48.80;;;;;;5113418;28;20494;-79
2021/04/01 10:07:57;;;;;;;32.13;29.57;;;20.90;49.00;;;;;;5113571;28;20441;-78
2021/04/01 10:10:36;;;;;;;34.20;31.13;;;21.00;48.70;;;;;;5113840;28;20478;-78
2021/04/01 10:13:02;;;;;;;33.33;30.83;;;21.20;48.60;;;;;;5113577;28;20459;-78
2021/04/01 10:15:30;;;;;;;32.60;30.00;;;21.40;48.20;;;;;;5113358;28;20859;-77
2021/04/01 10:17:58;;;;;;;33.73;31.00;;;21.40;48.10;;;;;;5113670;28;20510;-78
2021/04/01 10:20:26;;;;;;;32.67;29.97;;;21.50;47.80;;;;;;5113552;28;20475;-78
2021/04/01 10:22:53;;;;;;;32.40;30.10;;;21.60;47.70;;;;;;5113545;28;20475;-78
2021/04/01 10:25:25;;;;;;;32.87;30.57;;;21.70;47.60;;;;;;5113233;28;20568;-78
2021/04/01 10:27:55;;;;;;;32.20;29.80;;;21.60;47.60;;;;;;5113542;28;20531;-78
2021/04/01 10:30:23;;;;;;;32.87;30.07;;;21.60;47.60;;;;;;5113393;28;20464;-78
2021/04/01 10:32:52;;;;;;;32.73;30.03;;;21.70;47.50;;;;;;5113323;28;20456;-78
2021/04/01 10:35:25;;;;;;;32.90;30.37;;;21.90;47.30;;;;;;5113361;28;20453;-78
2021/04/01 10:37:56;;;;;;;35.27;32.37;;;21.90;47.10;;;;;;5114289;28;20472;-78
2021/04/01 10:40:23;;;;;;;31.47;29.07;;;22.00;47.20;;;;;;5129149;28;20465;-79
2021/04/01 10:43:01;;;;;;;31.20;28.90;;;22.30;46.60;;;;;;5129746;28;20486;-79
2021/04/01 10:45:33;;;;;;;30.53;28.13;;;22.40;46.40;;;;;;5128412;28;20505;-79
2021/04/01 10:48:15;;;;;;;31.70;29.40;;;22.50;45.80;;;;;;5129656;28;20527;-79
2021/04/01 10:50:43;;;;;;;31.37;29.00;;;22.70;45.40;;;;;;5129789;28;20467;-79
2021/04/01 10:53:18;;;;;;;30.30;28.10;;;22.90;45.20;;;;;;5130131;28;20528;-79
2021/04/01 10:55:45;;;;;;;31.13;28.97;;;23.10;44.90;;;;;;5130147;28;20451;-79
2021/04/01 10:58:14;;;;;;;30.17;28.00;;;23.20;44.50;;;;;;5130905;28;20475;-79
2021/04/01 11:00:41;;;;;;;31.00;28.80;;;23.10;44.50;;;;;;5131766;28;20531;-79
2021/04/01 11:03:15;;;;;;;29.80;27.90;;;23.20;44.50;;;;;;5130633;28;20449;-79
2021/04/01 11:05:43;;;;;;;30.17;27.73;;;23.30;44.20;;;;;;5129845;28;20477;-79
2021/04/01 11:08:11;;;;;;;29.87;27.23;;;23.40;44.00;;;;;;5130854;28;20499;-79
2021/04/01 11:10:40;;;;;;;30.90;28.40;;;23.50;43.80;;;;;;5131015;28;20986;-79
2021/04/01 11:13:09;;;;;;;29.80;27.80;;;23.60;43.40;;;;;;5128741;28;20453;-78
2021/04/01 11:15:37;;;;;;;30.37;27.93;;;23.70;43.10;;;;;;5129487;28;20539;-79
2021/04/01 11:18:07;;;;;;;28.73;26.83;;;23.50;43.50;;;;;;5131005;28;20468;-79
2021/04/01 11:20:35;;;;;;;29.60;27.57;;;23.50;43.60;;;;;;5131722;28;20460;-79
2021/04/01 11:23:06;;;;;;;32.57;29.57;;;23.60;43.60;;;;;;5131001;28;20444;-79
2021/04/01 11:25:34;;;;;;;29.93;27.57;;;23.70;43.40;;;;;;5127945;28;20476;-78
2021/04/01 11:28:00;;;;;;;29.93;27.93;;;23.80;43.10;;;;;;5126786;28;21015;-79
2021/04/01 11:30:47;;;;;;;30.53;27.90;;;23.90;43.10;;;;;;5129757;28;20465;-79
2021/04/01 11:33:14;;;;;;;29.47;27.37;;;23.70;43.00;;;;;;5130559;28;20455;-79
2021/04/01 11:35:43;;;;;;;30.77;28.77;;;23.80;43.30;;;;;;5134617;28;20444;-79
2021/04/01 11:38:17;;;;;;;29.07;27.10;;;24.00;42.90;;;;;;5134844;28;20499;-79
2021/04/01 11:40:53;;;;;;;30.57;28.43;;;24.10;42.70;;;;;;5134103;28;20471;-79
2021/04/01 11:43:25;;;;;;;30.07;27.87;;;24.10;42.50;;;;;;5134168;28;20553;-79
2021/04/01 11:45:52;;;;;;;29.13;27.10;;;24.10;42.50;;;;;;5133283;28;20459;-79
2021/04/01 11:48:19;;;;;;;29.57;27.43;;;24.00;42.50;;;;;;5133418;28;20444;-79
2021/04/01 11:50:46;;;;;;;29.93;27.93;;;24.00;42.40;;;;;;5134375;28;20821;-79
2021/04/01 11:53:12;;;;;;;29.20;26.20;;;24.10;42.50;;;;;;5133388;28;20444;-79
2021/04/01 11:55:49;;;;;;;29.37;27.07;;;24.20;42.30;;;;;;5133981;28;20511;-79
2021/04/01 11:58:17;;;;;;;28.90;26.93;;;24.30;41.90;;;;;;5134088;28;20471;-79
2021/04/01 12:00:44;;;;;;;28.70;26.77;;;24.30;42.00;;;;;;5134678;28;20520;-79
2021/04/01 12:03:14;;;;;;;28.37;26.33;;;24.50;41.90;;;;;;5133507;28;20936;-79
2021/04/01 12:05:43;;;;;;;29.50;27.60;;;24.80;41.60;;;;;;5133485;28;20479;-78
2021/04/01 12:08:10;;;;;;;29.57;27.60;;;24.90;41.30;;;;;;5133604;28;20452;-79
2021/04/01 12:10:36;;;;;;;28.03;26.23;;;25.10;41.00;;;;;;5131836;28;20613;-79
2021/04/01 12:13:03;;;;;;;28.77;26.87;;;25.00;40.20;;;;;;5116950;28;20547;-79
2021/04/01 12:15:34;;;;;;;29.97;27.87;;;24.80;40.30;;;;;;5117613;28;20471;-80
2021/04/01 12:18:01;;;;;;;29.93;28.00;;;24.80;40.30;;;;;;5118795;28;20965;-79
2021/04/01 12:20:29;;;;;;;28.60;26.70;;;24.90;40.40;;;;;;5116962;28;20470;-79
2021/04/01 12:22:55;;;;;;;29.60;27.80;;;24.80;40.50;;;;;;5116941;28;20458;-79
2021/04/01 12:25:25;;;;;;;29.43;27.23;;;24.80;40.60;;;;;;5116910;28;20458;-79
2021/04/01 12:27:54;;;;;;;29.43;27.53;;;24.80;40.60;;;;;;5118332;28;20444;-79
2021/04/01 12:30:28;;;;;;;30.40;28.07;;;24.80;40.50;;;;;;5117272;28;20906;-79
2021/04/01 12:33:06;;;;;;;29.30;27.23;;;24.80;40.60;;;;;;5117669;28;20476;-79
2021/04/01 12:35:33;;;;;;;28.83;26.83;;;24.70;40.60;;;;;;5117704;28;20477;-79
2021/04/01 12:38:02;;;;;;;27.00;25.23;;;24.60;40.90;;;;;;5116913;28;20475;-79
2021/04/01 12:40:29;;;;;;;27.93;26.03;;;24.70;40.70;;;;;;5118572;28;20467;-79
2021/04/01 12:43:04;;;;;;;27.47;25.87;;;24.60;40.60;;;;;;5120321;28;20450;-79
2021/04/01 12:45:33;;;;;;;28.57;26.87;;;24.70;40.50;;;;;;5117029;28;20447;-81
2021/04/01 12:48:10;;;;;;;29.37;27.27;;;24.90;40.40;;;;;;5115639;27;20550;-80
2021/04/01 12:50:40;;;;;;;29.57;27.77;;;24.90;40.10;;;;;;5116619;28;20464;-79
2021/04/01 12:53:07;;;;;;;27.97;26.17;;;25.00;40.10;;;;;;5116892;28;20485;-80
2021/04/01 12:55:45;;;;;;;28.23;26.33;;;25.00;40.00;;;;;;5116175;28;20538;-79
2021/04/01 12:58:22;;;;;;;27.20;25.60;;;25.20;39.60;;;;;;5116956;28;21066;-80
2021/04/01 13:00:52;;;;;;;28.47;26.70;;;25.30;39.00;;;;;;5117717;28;20529;-79
2021/04/01 13:03:18;;;;;;;29.53;27.73;;;25.40;38.70;;;;;;5117471;27;20464;-79
2021/04/01 13:05:50;;;;;;;28.03;26.40;;;25.50;38.20;;;;;;5118443;27;20476;-80
2021/04/01 13:11:05;;;;;;;29.93;27.73;;;25.50;38.00;;;;;;5108195;28;20496;-79
2021/04/01 13:13:32;;;;;;;30.40;28.37;;;25.50;37.80;;;;;;5120420;28;20874;-80
2021/04/01 13:15:58;;;;;;;28.03;26.23;;;25.50;37.70;;;;;;5119418;28;20448;-80
2021/04/01 13:18:24;;;;;;;28.73;26.63;;;25.60;37.50;;;;;;5120827;28;20484;-80
2021/04/01 13:20:54;;;;;;;28.37;26.47;;;25.60;36.90;;;;;;5120256;28;20555;-81